Time;durP1;ratioP1;P1;durP2;ratioP2;P2;SDS_P1;SDS_P2;PMS_P1;PMS_P2;Temp;Humidity;BMP_temperature;BMP_pressure;BME280_temperature;BME280_humidity;BME280_pressure;Samples;Min_cycle;Max_cycle;Signal;HPM_P1;HPM_P2
2022/10/21 00:00:54;;;;;;;33.37;14.63;;;;;;;;;;4959253;29;20603;-52
2022/10/21 00:03:33;;;;;;;32.73;14.17;;;;;;;;;;4959645;28;20314;-54
2022/10/21 00:06:00;;;;;;;38.53;18.27;;;;;;;;;;4959727;28;20255;-52
2022/10/21 00:08:27;;;;;;;96.47;51.20;;;;;;;;;;4959581;29;20280;-53
2022/10/21 00:10:57;;;;;;;62.80;39.90;;;;;;;;;;4959575;29;20234;-53
2022/10/21 00:13:26;;;;;;;51.20;33.20;;;;;;;;;;4959354;29;20536;-51
2022/10/21 00:16:07;;;;;;;21.40;11.60;;;;;;;;;;4959572;28;20230;-52
2022/10/21 00:18:35;;;;;;;19.13;10.20;;;;;;;;;;4959684;28;20199;-51
2022/10/21 00:21:07;;;;;;;19.97;10.37;;;;;;;;;;4959513;29;20215;-55
2022/10/21 00:23:34;;;;;;;19.93;10.93;;;;;;;;;;4959241;29;20200;-51
2022/10/21 00:26:02;;;;;;;21.83;11.50;;;;;;;;;;4959178;29;20233;-53
2022/10/21 00:28:29;;;;;;;28.37;12.90;;;;;;;;;;4959314;29;20204;-54
2022/10/21 00:30:56;;;;;;;35.70;14.83;;;;;;;;;;4958698;29;20682;-54
2022/10/21 00:33:26;;;;;;;31.20;13.83;;;;;;;;;;4959538;29;20199;-52
2022/10/21 00:35:56;;;;;;;18.20;10.17;;;;;;;;;;4958860;29;20262;-54
2022/10/21 00:38:23;;;;;;;19.73;10.13;;;;;;;;;;4958889;28;20208;-52
2022/10/21 00:40:50;;;;;;;18.03;9.50;;;;;;;;;;4958885;29;20207;-51
2022/10/21 00:43:17;;;;;;;20.90;9.73;;;;;;;;;;4959236;29;20204;-54
2022/10/21 00:45:45;;;;;;;17.33;8.73;;;;;;;;;;4958531;28;20211;-52
2022/10/21 00:48:31;;;;;;;17.63;9.50;;;;;;;;;;4941640;29;20215;-56
2022/10/21 00:51:07;;;;;;;20.63;8.23;;;;;;;;;;4958116;28;20759;-51
2022/10/21 00:53:36;;;;;;;16.27;8.93;;;;;;;;;;4959226;28;20211;-52
2022/10/21 00:56:07;;;;;;;16.00;8.87;;;;;;;;;;4957478;29;20246;-53
2022/10/21 00:58:38;;;;;;;15.60;8.57;;;;;;;;;;4957691;29;20203;-51
2022/10/21 01:01:06;;;;;;;21.67;9.67;;;;;;;;;;4957724;29;20200;-51
2022/10/21 01:03:34;;;;;;;22.67;9.60;;;;;;;;;;4957951;29;20634;-51
2022/10/21 01:06:04;;;;;;;19.83;10.10;;;;;;;;;;4958457;28;20208;-51
2022/10/21 01:08:32;;;;;;;16.93;10.00;;;;;;;;;;4957964;29;20544;-56
2022/10/21 01:11:00;;;;;;;21.67;10.60;;;;;;;;;;4957933;29;20219;-51
2022/10/21 01:13:59;;;;;;;20.17;10.10;;;;;;;;;;4958335;29;20207;-52
2022/10/21 01:16:39;;;;;;;22.67;10.47;;;;;;;;;;4948343;29;20207;-52
2022/10/21 01:19:59;;;;;;;17.00;9.83;;;;;;;;;;4957501;29;20207;-55
2022/10/21 01:22:43;;;;;;;21.07;12.70;;;;;;;;;;4957359;29;20222;-50
2022/10/21 01:25:31;;;;;;;28.50;13.93;;;;;;;;;;4958564;28;20254;-54
2022/10/21 01:27:58;;;;;;;28.80;16.03;;;;;;;;;;4957164;29;20203;-52
2022/10/21 01:30:41;;;;;;;36.97;17.87;;;;;;;;;;4957864;29;20283;-52
2022/10/21 01:33:23;;;;;;;46.97;19.00;;;;;;;;;;4956989;29;20206;-51
2022/10/21 01:36:18;;;;;;;31.50;14.50;;;;;;;;;;4957654;29;20192;-52
2022/10/21 01:38:54;;;;;;;32.40;15.27;;;;;;;;;;4957787;28;20211;-51
2022/10/21 01:41:32;;;;;;;28.63;14.00;;;;;;;;;;4958209;29;20207;-51
2022/10/21 01:44:25;;;;;;;27.80;13.43;;;;;;;;;;4956637;29;20278;-53
2022/10/21 01:47:00;;;;;;;24.70;13.70;;;;;;;;;;4957639;29;20203;-51
2022/10/21 01:49:59;;;;;;;20.07;11.17;;;;;;;;;;4957651;29;20203;-51
2022/10/21 01:52:27;;;;;;;18.20;10.47;;;;;;;;;;4936743;29;20587;-51
2022/10/21 01:55:01;;;;;;;19.27;10.57;;;;;;;;;;4936486;29;20212;-53
2022/10/21 01:57:32;;;;;;;22.80;12.97;;;;;;;;;;4921138;29;20192;-51
2022/10/21 02:00:00;;;;;;;18.30;10.80;;;;;;;;;;4936746;29;20192;-52
2022/10/21 02:02:33;;;;;;;18.03;8.77;;;;;;;;;;4920714;29;20303;-51
2022/10/21 02:05:05;;;;;;;16.27;9.33;;;;;;;;;;4921021;29;20263;-51
2022/10/21 02:07:32;;;;;;;18.17;11.20;;;;;;;;;;4921227;29;20200;-51
2022/10/21 02:09:58;;;;;;;19.03;10.90;;;;;;;;;;4936308;29;20208;-51
2022/10/21 02:12:27;;;;;;;18.13;9.40;;;;;;;;;;4936282;29;20232;-52
2022/10/21 02:14:56;;;;;;;17.10;8.87;;;;;;;;;;4936424;29;20223;-53
2022/10/21 02:17:25;;;;;;;19.37;10.10;;;;;;;;;;4920943;29;20208;-51
2022/10/21 02:19:53;;;;;;;18.30;9.83;;;;;;;;;;4936352;29;20204;-51
2022/10/21 02:22:21;;;;;;;17.20;8.53;;;;;;;;;;4936329;29;20212;-54
2022/10/21 02:24:51;;;;;;;19.30;9.83;;;;;;;;;;4920455;29;20204;-54
2022/10/21 02:27:19;;;;;;;19.50;8.50;;;;;;;;;;4940477;29;20214;-52
2022/10/21 02:29:48;;;;;;;15.13;8.57;;;;;;;;;;4956013;29;20218;-51
2022/10/21 02:32:18;;;;;;;15.60;8.60;;;;;;;;;;4957310;29;20291;-51
2022/10/21 02:35:00;;;;;;;28.73;16.37;;;;;;;;;;4956964;28;20203;-50
2022/10/21 02:37:35;;;;;;;21.10;9.27;;;;;;;;;;4956906;29;20192;-54
2022/10/21 02:40:21;;;;;;;19.87;10.00;;;;;;;;;;4956303;29;20195;-55
2022/10/21 02:42:57;;;;;;;16.17;9.87;;;;;;;;;;4956282;29;20571;-51
2022/10/21 02:45:25;;;;;;;20.27;10.23;;;;;;;;;;4956070;29;20211;-52
2022/10/21 02:47:52;;;;;;;20.07;10.17;;;;;;;;;;4955925;29;20289;-51
2022/10/21 02:50:19;;;;;;;36.60;16.77;;;;;;;;;;4955985;29;20203;-51
2022/10/21 02:52:46;;;;;;;17.83;9.20;;;;;;;;;;4956551;29;20235;-53
2022/10/21 02:55:13;;;;;;;20.80;11.57;;;;;;;;;;4956770;28;20510;-51
2022/10/21 02:57:41;;;;;;;27.37;15.70;;;;;;;;;;4956745;29;20638;-50
2022/10/21 03:00:08;;;;;;;19.00;9.90;;;;;;;;;;4956490;28;20278;-52
2022/10/21 03:02:35;;;;;;;13.90;8.40;;;;;;;;;;4956657;29;20206;-51
2022/10/21 03:05:03;;;;;;;18.23;9.67;;;;;;;;;;4956736;29;20199;-53
2022/10/21 03:07:30;;;;;;;26.47;13.77;;;;;;;;;;4956566;29;20207;-51
2022/10/21 03:09:56;;;;;;;35.80;18.97;;;;;;;;;;4956345;28;20266;-52
2022/10/21 03:12:24;;;;;;;35.83;18.53;;;;;;;;;;4956403;29;20234;-52
2022/10/21 03:14:50;;;;;;;48.53;24.23;;;;;;;;;;4958308;28;20568;-52
2022/10/21 03:17:18;;;;;;;43.33;23.53;;;;;;;;;;4960206;29;20627;-55
2022/10/21 03:19:50;;;;;;;40.30;20.67;;;;;;;;;;4960128;29;20195;-51
2022/10/21 03:22:17;;;;;;;35.37;19.23;;;;;;;;;;4960232;29;20231;-53
2022/10/21 03:24:44;;;;;;;17.97;10.23;;;;;;;;;;4960365;28;20235;-52
2022/10/21 03:27:11;;;;;;;22.37;12.23;;;;;;;;;;4959897;29;20714;-50
2022/10/21 03:29:38;;;;;;;28.33;16.37;;;;;;;;;;4952188;29;20226;-50
2022/10/21 03:32:05;;;;;;;18.47;9.93;;;;;;;;;;4940602;29;20311;-51
2022/10/21 03:34:32;;;;;;;18.43;11.00;;;;;;;;;;4940053;29;20208;-54
2022/10/21 03:36:59;;;;;;;20.50;10.40;;;;;;;;;;4957636;28;20214;-55
2022/10/21 03:39:26;;;;;;;20.50;10.57;;;;;;;;;;4977475;28;20297;-56
2022/10/21 03:41:53;;;;;;;17.70;9.37;;;;;;;;;;4980484;28;20198;-54
2022/10/21 03:44:20;;;;;;;16.33;8.63;;;;;;;;;;4979071;28;20218;-52
2022/10/21 03:46:49;;;;;;;16.43;10.10;;;;;;;;;;4975183;28;20210;-52
2022/10/21 03:49:17;;;;;;;18.77;10.97;;;;;;;;;;4979008;28;20242;-55
2022/10/21 03:51:48;;;;;;;27.00;15.53;;;;;;;;;;4978728;28;20234;-54
2022/10/21 03:54:15;;;;;;;19.33;10.30;;;;;;;;;;4978979;28;20568;-55
2022/10/21 03:56:42;;;;;;;15.07;9.07;;;;;;;;;;4977159;28;20634;-53
2022/10/21 03:59:09;;;;;;;16.30;8.80;;;;;;;;;;4937916;28;20242;-55
2022/10/21 04:01:36;;;;;;;19.27;9.60;;;;;;;;;;4950016;29;20285;-56
2022/10/21 04:04:03;;;;;;;18.73;9.67;;;;;;;;;;4958191;28;20330;-51
2022/10/21 04:06:30;;;;;;;17.50;10.20;;;;;;;;;;4957906;28;20230;-54
2022/10/21 04:08:57;;;;;;;18.23;10.37;;;;;;;;;;4958250;28;20232;-52
2022/10/21 04:11:24;;;;;;;21.47;11.27;;;;;;;;;;4958086;28;20246;-53
2022/10/21 04:13:51;;;;;;;20.97;11.53;;;;;;;;;;4957095;29;20231;-56
2022/10/21 04:16:19;;;;;;;18.90;10.20;;;;;;;;;;4950042;28;20702;-51
2022/10/21 04:18:46;;;;;;;51.60;16.83;;;;;;;;;;4970744;28;20537;-57
2022/10/21 04:21:14;;;;;;;39.03;14.50;;;;;;;;;;4977872;28;20569;-56
2022/10/21 04:23:41;;;;;;;25.63;11.30;;;;;;;;;;4977615;28;20728;-52
2022/10/21 04:26:10;;;;;;;19.47;10.00;;;;;;;;;;4976662;28;20313;-58
2022/10/21 04:28:37;;;;;;;34.50;13.00;;;;;;;;;;4975566;28;20222;-56
2022/10/21 04:31:04;;;;;;;17.97;9.97;;;;;;;;;;4973804;28;20604;-55
2022/10/21 04:33:31;;;;;;;18.73;9.47;;;;;;;;;;4977421;28;20290;-58
2022/10/21 04:35:58;;;;;;;16.53;8.70;;;;;;;;;;4977744;28;20227;-55
2022/10/21 04:38:26;;;;;;;18.27;9.17;;;;;;;;;;4977565;28;20529;-57
2022/10/21 04:40:58;;;;;;;25.27;12.67;;;;;;;;;;4977622;28;20237;-56
2022/10/21 04:43:25;;;;;;;24.13;11.73;;;;;;;;;;4963800;28;20234;-52
2022/10/21 04:45:53;;;;;;;21.10;10.03;;;;;;;;;;4971502;28;20246;-51
2022/10/21 04:48:20;;;;;;;16.90;9.33;;;;;;;;;;4961486;28;20511;-53
2022/10/21 04:50:49;;;;;;;19.13;9.70;;;;;;;;;;4962026;28;20274;-54
2022/10/21 04:53:16;;;;;;;18.07;9.40;;;;;;;;;;4960184;28;20238;-57
2022/10/21 04:55:43;;;;;;;18.50;10.13;;;;;;;;;;4967970;28;20322;-53
2022/10/21 04:58:10;;;;;;;14.73;8.90;;;;;;;;;;4964867;28;20222;-52
2022/10/21 05:00:37;;;;;;;17.07;9.37;;;;;;;;;;4964924;28;20226;-52
2022/10/21 05:03:04;;;;;;;15.27;9.03;;;;;;;;;;4961447;28;20265;-54
2022/10/21 05:05:31;;;;;;;14.63;8.53;;;;;;;;;;4965635;28;20601;-52
2022/10/21 05:07:58;;;;;;;19.50;9.40;;;;;;;;;;4964762;28;20229;-54
2022/10/21 05:10:25;;;;;;;15.10;8.47;;;;;;;;;;4961861;28;20226;-51
2022/10/21 05:12:52;;;;;;;17.30;9.47;;;;;;;;;;4965577;28;20238;-56
2022/10/21 05:15:20;;;;;;;17.80;8.83;;;;;;;;;;4966498;28;20235;-55
2022/10/21 05:17:46;;;;;;;16.83;9.10;;;;;;;;;;4962401;28;20717;-56
2022/10/21 05:20:13;;;;;;;19.00;9.63;;;;;;;;;;4965398;28;20254;-56
2022/10/21 05:22:40;;;;;;;15.47;9.47;;;;;;;;;;4965749;28;20218;-52
2022/10/21 05:25:08;;;;;;;21.80;9.43;;;;;;;;;;4964707;28;20226;-52
2022/10/21 05:27:35;;;;;;;15.07;9.67;;;;;;;;;;4966536;28;20313;-55
2022/10/21 05:30:03;;;;;;;20.00;10.63;;;;;;;;;;4966987;28;20219;-52
2022/10/21 05:32:30;;;;;;;18.33;9.50;;;;;;;;;;4971989;28;20705;-52
2022/10/21 05:34:57;;;;;;;18.10;9.87;;;;;;;;;;4976917;28;20226;-53
2022/10/21 05:37:24;;;;;;;19.30;10.07;;;;;;;;;;4976301;28;20199;-52
2022/10/21 05:39:51;;;;;;;17.27;10.53;;;;;;;;;;4977434;28;20203;-53
2022/10/21 05:42:18;;;;;;;18.47;9.83;;;;;;;;;;4976936;28;20265;-57
2022/10/21 05:44:45;;;;;;;20.40;10.77;;;;;;;;;;4976744;28;20207;-53
2022/10/21 05:47:12;;;;;;;21.77;10.80;;;;;;;;;;4977111;28;20203;-53
2022/10/21 05:49:40;;;;;;;17.73;10.70;;;;;;;;;;4976999;28;20203;-54
2022/10/21 05:52:07;;;;;;;20.47;11.10;;;;;;;;;;4976745;28;20301;-54
2022/10/21 05:54:34;;;;;;;19.63;11.33;;;;;;;;;;4976877;28;20271;-54
2022/10/21 05:57:01;;;;;;;18.60;10.60;;;;;;;;;;4976589;28;20202;-52
2022/10/21 05:59:28;;;;;;;21.17;10.87;;;;;;;;;;4976816;28;20210;-52
2022/10/21 06:01:55;;;;;;;20.50;11.23;;;;;;;;;;4977034;28;20273;-56
2022/10/21 06:04:22;;;;;;;22.23;12.27;;;;;;;;;;4976815;28;20238;-51
2022/10/21 06:06:49;;;;;;;22.27;12.23;;;;;;;;;;4976669;28;20202;-55
2022/10/21 06:09:16;;;;;;;22.30;12.03;;;;;;;;;;4976317;28;20728;-54
2022/10/21 06:11:43;;;;;;;19.10;11.27;;;;;;;;;;4976527;28;20225;-57
2022/10/21 06:14:10;;;;;;;18.83;11.30;;;;;;;;;;4976468;28;20206;-56
2022/10/21 06:16:37;;;;;;;19.77;11.23;;;;;;;;;;4976243;28;20629;-52
2022/10/21 06:19:04;;;;;;;21.63;12.63;;;;;;;;;;4976380;28;20210;-52
2022/10/21 06:21:31;;;;;;;21.20;11.43;;;;;;;;;;4976462;28;20645;-52
2022/10/21 06:23:58;;;;;;;23.87;12.43;;;;;;;;;;4976165;28;20213;-56
2022/10/21 06:26:25;;;;;;;23.97;12.10;;;;;;;;;;4976133;28;20603;-52
2022/10/21 06:28:52;;;;;;;22.93;12.80;;;;;;;;;;4975960;28;20203;-52
2022/10/21 06:31:20;;;;;;;23.93;12.40;;;;;;;;;;4976353;28;20207;-56
2022/10/21 06:33:47;;;;;;;23.13;11.97;;;;;;;;;;4976181;28;20238;-56
2022/10/21 06:36:14;;;;;;;23.07;12.80;;;;;;;;;;4976404;28;20217;-55
2022/10/21 06:38:43;;;;;;;21.53;12.13;;;;;;;;;;4975993;28;20205;-52
2022/10/21 06:41:12;;;;;;;26.03;12.90;;;;;;;;;;4975978;28;20214;-53
2022/10/21 06:43:41;;;;;;;24.13;12.20;;;;;;;;;;4975325;28;20214;-54
2022/10/21 06:46:12;;;;;;;20.47;12.00;;;;;;;;;;4976083;28;20220;-56
2022/10/21 06:48:40;;;;;;;22.20;11.70;;;;;;;;;;4975644;28;20203;-53
2022/10/21 06:51:13;;;;;;;23.73;12.30;;;;;;;;;;4976009;28;20213;-54
2022/10/21 06:53:42;;;;;;;20.93;12.03;;;;;;;;;;4976063;28;20226;-55
2022/10/21 06:56:11;;;;;;;21.53;11.67;;;;;;;;;;4975865;28;20202;-55
2022/10/21 06:58:42;;;;;;;21.87;11.70;;;;;;;;;;4975665;28;20656;-56
2022/10/21 07:01:20;;;;;;;23.53;12.83;;;;;;;;;;4976145;28;20282;-53
2022/10/21 07:04:08;;;;;;;28.33;13.03;;;;;;;;;;4975890;28;20231;-57
2022/10/21 07:06:35;;;;;;;23.77;12.47;;;;;;;;;;4975974;28;20205;-52
2022/10/21 07:09:03;;;;;;;22.73;12.53;;;;;;;;;;4975616;28;20642;-54
2022/10/21 07:11:30;;;;;;;21.20;11.43;;;;;;;;;;4975882;28;20207;-55
2022/10/21 07:13:59;;;;;;;20.57;12.83;;;;;;;;;;4975803;28;20230;-53
2022/10/21 07:16:29;;;;;;;25.07;12.80;;;;;;;;;;4975927;28;20215;-56
2022/10/21 07:18:56;;;;;;;26.23;12.83;;;;;;;;;;4976051;28;20206;-53
2022/10/21 07:21:25;;;;;;;21.23;11.97;;;;;;;;;;4975681;28;20237;-55
2022/10/21 07:23:54;;;;;;;21.63;12.53;;;;;;;;;;4975774;28;20207;-55
2022/10/21 07:26:26;;;;;;;24.17;12.47;;;;;;;;;;4975965;28;20215;-58
2022/10/21 07:28:56;;;;;;;21.37;12.33;;;;;;;;;;4975563;28;20217;-55
2022/10/21 07:31:23;;;;;;;21.73;12.70;;;;;;;;;;4975517;28;20617;-56
2022/10/21 07:33:50;;;;;;;24.53;11.83;;;;;;;;;;4975622;28;20227;-54
2022/10/21 07:36:21;;;;;;;19.00;11.73;;;;;;;;;;4974246;28;20227;-53
2022/10/21 07:38:49;;;;;;;20.67;11.43;;;;;;;;;;4975650;28;20210;-55
2022/10/21 07:41:21;;;;;;;18.43;11.33;;;;;;;;;;4975621;28;20242;-56
2022/10/21 07:43:50;;;;;;;20.57;10.33;;;;;;;;;;4975721;28;20207;-52
2022/10/21 07:46:18;;;;;;;19.27;10.00;;;;;;;;;;4975579;28;20207;-56
2022/10/21 07:48:46;;;;;;;19.57;10.23;;;;;;;;;;4975281;28;20214;-55
2022/10/21 07:51:16;;;;;;;21.53;10.73;;;;;;;;;;4975542;28;20211;-53
2022/10/21 07:53:43;;;;;;;28.87;10.80;;;;;;;;;;4975272;28;20239;-56
2022/10/21 07:56:14;;;;;;;25.53;11.00;;;;;;;;;;4975304;28;20207;-56
2022/10/21 07:58:42;;;;;;;26.37;11.00;;;;;;;;;;4975493;28;20194;-57
2022/10/21 08:01:09;;;;;;;27.13;10.77;;;;;;;;;;4977669;28;20226;-56
2022/10/21 08:03:37;;;;;;;33.87;10.77;;;;;;;;;;4978885;28;20602;-56
2022/10/21 08:06:06;;;;;;;25.60;10.53;;;;;;;;;;4978915;28;20383;-57
2022/10/21 08:08:34;;;;;;;25.87;10.00;;;;;;;;;;4978549;28;20208;-56
2022/10/21 08:11:02;;;;;;;35.60;10.43;;;;;;;;;;4979016;28;20203;-57
2022/10/21 08:13:30;;;;;;;30.57;10.10;;;;;;;;;;4978775;28;20300;-57
2022/10/21 08:15:58;;;;;;;23.87;9.70;;;;;;;;;;4978647;28;20234;-56
2022/10/21 08:18:25;;;;;;;23.83;9.27;;;;;;;;;;4978899;28;20221;-57
2022/10/21 08:20:52;;;;;;;21.87;8.40;;;;;;;;;;4978618;28;20257;-55
2022/10/21 08:23:21;;;;;;;26.50;9.07;;;;;;;;;;4978277;28;20206;-58
2022/10/21 08:25:53;;;;;;;20.83;8.70;;;;;;;;;;4978584;28;20198;-57
2022/10/21 08:28:22;;;;;;;12.40;7.67;;;;;;;;;;4978430;28;20202;-56
2022/10/21 08:30:49;;;;;;;16.27;7.30;;;;;;;;;;4978420;28;20630;-58
2022/10/21 08:33:16;;;;;;;14.63;7.50;;;;;;;;;;4978232;28;20234;-53
2022/10/21 08:35:43;;;;;;;19.10;7.73;;;;;;;;;;4978133;28;20202;-57
2022/10/21 08:38:11;;;;;;;13.27;6.90;;;;;;;;;;4978081;28;20289;-57
2022/10/21 08:40:48;;;;;;;15.40;7.10;;;;;;;;;;4978369;28;20207;-57
2022/10/21 08:43:22;;;;;;;16.67;7.00;;;;;;;;;;4978215;28;20214;-58
2022/10/21 08:46:00;;;;;;;12.48;7.15;;;;;;;;;;4977255;28;20281;-57
2022/10/21 08:48:32;;;;;;;15.93;6.37;;;;;;;;;;4977708;28;20207;-58
2022/10/21 08:51:00;;;;;;;12.57;6.57;;;;;;;;;;4977403;28;20190;-58
2022/10/21 08:53:38;;;;;;;14.90;7.13;;;;;;;;;;4977994;28;20238;-58
2022/10/21 08:56:10;;;;;;;11.63;6.57;;;;;;;;;;4977423;28;20234;-58
2022/10/21 08:58:46;;;;;;;12.15;6.43;;;;;;;;;;4977553;28;20213;-57
2022/10/21 09:01:33;;;;;;;15.52;6.15;;;;;;;;;;4976805;28;20591;-57
2022/10/21 09:04:15;;;;;;;13.77;6.95;;;;;;;;;;4976849;28;20621;-59
2022/10/21 09:07:14;;;;;;;13.32;6.38;;;;;;;;;;4977740;28;20198;-58
2022/10/21 09:09:48;;;;;;;12.80;5.78;;;;;;;;;;4977325;28;20548;-57
2022/10/21 09:12:36;;;;;;;18.00;6.30;;;;;;;;;;4977960;28;20207;-58
2022/10/21 09:15:22;;;;;;;11.77;5.00;;;;;;;;;;4965207;28;20211;-58
2022/10/21 09:17:52;;;;;;;11.75;5.45;;;;;;;;;;4977281;28;20190;-58
2022/10/21 09:20:39;;;;;;;10.10;5.35;;;;;;;;;;4966280;28;20266;-58
2022/10/21 09:23:27;;;;;;;11.27;5.38;;;;;;;;;;4958176;28;20211;-59
2022/10/21 09:26:05;;;;;;;11.52;5.78;;;;;;;;;;4958188;28;20207;-58
2022/10/21 09:28:32;;;;;;;14.52;5.43;;;;;;;;;;4958210;29;20196;-58
2022/10/21 09:31:01;;;;;;;9.93;5.07;;;;;;;;;;4958048;28;20211;-57
2022/10/21 09:33:35;;;;;;;11.45;5.18;;;;;;;;;;4957732;28;20230;-58
2022/10/21 09:36:14;;;;;;;11.98;5.57;;;;;;;;;;4958114;29;20217;-58
2022/10/21 09:38:50;;;;;;;8.93;5.10;;;;;;;;;;4957993;28;20199;-58
2022/10/21 09:41:20;;;;;;;9.70;5.43;;;;;;;;;;4958051;28;20211;-58
2022/10/21 09:43:49;;;;;;;10.02;5.55;;;;;;;;;;4957789;28;20307;-58
2022/10/21 09:46:16;;;;;;;9.00;5.53;;;;;;;;;;4957682;28;20554;-59
2022/10/21 09:48:46;;;;;;;11.23;5.55;;;;;;;;;;4956619;29;20208;-58
2022/10/21 09:51:37;;;;;;;9.70;5.07;;;;;;;;;;4958003;28;20215;-58
2022/10/21 09:54:17;;;;;;;12.20;5.22;;;;;;;;;;4957325;28;20662;-59
2022/10/21 09:56:48;;;;;;;10.75;5.57;;;;;;;;;;4956956;29;20215;-58
2022/10/21 09:59:18;;;;;;;11.27;5.20;;;;;;;;;;4956792;29;20288;-57
2022/10/21 10:01:46;;;;;;;8.32;5.13;;;;;;;;;;4957334;28;20207;-58
2022/10/21 10:04:21;;;;;;;15.55;7.20;;;;;;;;;;4957482;28;20547;-58
2022/10/21 10:06:48;;;;;;;77.47;19.45;;;;;;;;;;4957330;28;20222;-57
2022/10/21 10:09:15;;;;;;;20.33;8.07;;;;;;;;;;4957148;28;20207;-58
2022/10/21 10:11:54;;;;;;;24.15;8.27;;;;;;;;;;4957527;28;20531;-58
2022/10/21 10:14:28;;;;;;;15.40;6.90;;;;;;;;;;4957001;28;20231;-58
2022/10/21 10:16:57;;;;;;;30.67;11.63;;;;;;;;;;4957356;28;20278;-57
2022/10/21 10:19:26;;;;;;;12.90;6.78;;;;;;;;;;4956873;28;20203;-57
2022/10/21 10:22:27;;;;;;;11.52;5.28;;;;;;;;;;4957976;28;20567;-59
2022/10/21 10:25:16;;;;;;;10.88;5.30;;;;;;;;;;4917006;29;20208;-58
2022/10/21 10:28:00;;;;;;;9.40;5.38;;;;;;;;;;4917490;29;20219;-58
2022/10/21 10:30:42;;;;;;;9.52;5.60;;;;;;;;;;4917202;29;20205;-58
2022/10/21 10:33:11;;;;;;;18.02;7.25;;;;;;;;;;4916971;29;20695;-58
2022/10/21 10:35:46;;;;;;;8.90;5.57;;;;;;;;;;4917653;29;20208;-57
2022/10/21 10:38:25;;;;;;;15.90;7.47;;;;;;;;;;4901551;29;20212;-58
2022/10/21 10:40:52;;;;;;;11.18;6.13;;;;;;;;;;4917373;29;20204;-59
2022/10/21 10:43:29;;;;;;;24.13;9.85;;;;;;;;;;4917136;29;20264;-58
2022/10/21 10:45:56;;;;;;;12.55;6.55;;;;;;;;;;4901852;29;20219;-56
2022/10/21 10:48:43;;;;;;;12.07;6.18;;;;;;;;;;4916906;29;20221;-58
2022/10/21 10:51:25;;;;;;;12.25;5.60;;;;;;;;;;4901493;29;20604;-57
2022/10/21 10:54:26;;;;;;;17.33;9.60;;;;;;;;;;4916959;29;20243;-58
2022/10/21 10:56:58;;;;;;;11.90;6.68;;;;;;;;;;4917219;29;20200;-57
2022/10/21 10:59:33;;;;;;;10.73;5.65;;;;;;;;;;4918460;29;20197;-58
2022/10/21 11:02:11;;;;;;;13.13;5.53;;;;;;;;;;4957176;29;20294;-58
2022/10/21 11:04:57;;;;;;;13.38;5.72;;;;;;;;;;4956403;28;20235;-58
2022/10/21 11:07:32;;;;;;;9.68;5.80;;;;;;;;;;4956413;28;20582;-58
2022/10/21 11:10:07;;;;;;;9.63;5.85;;;;;;;;;;4957321;28;20209;-58
2022/10/21 11:12:33;;;;;;;12.68;6.18;;;;;;;;;;4956097;29;20194;-57
2022/10/21 11:15:01;;;;;;;8.95;5.32;;;;;;;;;;4956388;28;20227;-58
2022/10/21 11:17:36;;;;;;;34.97;16.75;;;;;;;;;;4956862;28;20203;-57
2022/10/21 11:20:12;;;;;;;10.15;5.78;;;;;;;;;;4956594;28;20207;-58
2022/10/21 11:23:00;;;;;;;11.93;5.45;;;;;;;;;;4955885;29;20582;-58
2022/10/21 11:25:40;;;;;;;8.05;5.05;;;;;;;;;;4956821;28;20208;-58
2022/10/21 11:28:25;;;;;;;11.65;5.65;;;;;;;;;;4955797;29;20188;-58
2022/10/21 11:31:17;;;;;;;9.40;5.30;;;;;;;;;;4956286;29;20184;-58
2022/10/21 11:33:56;;;;;;;8.55;4.53;;;;;;;;;;4956478;28;20223;-59
2022/10/21 11:36:46;;;;;;;12.35;5.03;;;;;;;;;;4959193;29;20661;-58
2022/10/21 11:39:44;;;;;;;22.48;9.68;;;;;;;;;;4958988;29;20191;-59
2022/10/21 11:42:22;;;;;;;11.50;5.07;;;;;;;;;;4960239;29;20199;-59
2022/10/21 11:44:49;;;;;;;11.23;5.50;;;;;;;;;;4959130;29;20322;-58
2022/10/21 11:47:28;;;;;;;9.90;5.63;;;;;;;;;;4964451;28;20203;-57
2022/10/21 11:50:04;;;;;;;7.68;4.55;;;;;;;;;;4970166;28;20268;-58
2022/10/21 11:52:37;;;;;;;7.32;4.20;;;;;;;;;;4968173;28;20197;-58
2022/10/21 11:55:31;;;;;;;10.07;5.13;;;;;;;;;;4968128;28;20215;-58
2022/10/21 11:58:17;;;;;;;9.50;4.72;;;;;;;;;;4968592;28;20210;-57
2022/10/21 12:01:11;;;;;;;9.70;4.60;;;;;;;;;;4966370;28;20195;-58
2022/10/21 12:04:00;;;;;;;12.10;5.00;;;;;;;;;;4931764;28;20241;-57
2022/10/21 12:06:37;;;;;;;12.68;6.00;;;;;;;;;;4967578;28;20265;-57
2022/10/21 12:09:42;;;;;;;19.42;8.57;;;;;;;;;;4966291;28;20203;-58
2022/10/21 12:12:12;;;;;;;32.20;10.55;;;;;;;;;;4928587;28;20655;-58
2022/10/21 12:14:42;;;;;;;34.60;12.70;;;;;;;;;;4967233;28;20207;-59
2022/10/21 12:17:15;;;;;;;9.60;4.53;;;;;;;;;;4965972;28;20203;-58
2022/10/21 12:19:46;;;;;;;21.02;9.40;;;;;;;;;;4965464;28;20187;-58
2022/10/21 12:22:13;;;;;;;20.63;8.13;;;;;;;;;;4946093;29;20199;-59
2022/10/21 12:24:43;;;;;;;29.83;12.75;;;;;;;;;;4963062;28;20207;-54
2022/10/21 12:27:42;;;;;;;19.48;9.85;;;;;;;;;;4967037;28;20190;-56
2022/10/21 12:30:16;;;;;;;9.07;4.57;;;;;;;;;;4966384;28;20277;-56
2022/10/21 12:32:49;;;;;;;14.25;5.90;;;;;;;;;;4966825;28;20191;-57
2022/10/21 12:35:53;;;;;;;11.05;5.22;;;;;;;;;;4957210;28;20273;-56
2022/10/21 12:38:42;;;;;;;21.15;7.20;;;;;;;;;;4955183;28;20314;-57
2022/10/21 12:41:28;;;;;;;14.02;5.75;;;;;;;;;;4964824;28;20278;-57
2022/10/21 12:44:05;;;;;;;31.42;12.77;;;;;;;;;;4961091;28;20683;-57
2022/10/21 12:46:37;;;;;;;31.95;12.45;;;;;;;;;;4963893;28;20701;-55
2022/10/21 12:49:18;;;;;;;10.80;5.22;;;;;;;;;;4963871;28;20238;-57
2022/10/21 12:51:56;;;;;;;9.68;4.70;;;;;;;;;;4964716;28;20223;-57
2022/10/21 12:54:26;;;;;;;12.88;5.38;;;;;;;;;;4963027;28;20230;-56
2022/10/21 12:56:59;;;;;;;16.17;7.00;;;;;;;;;;4963395;28;20219;-55
2022/10/21 12:59:36;;;;;;;8.10;4.10;;;;;;;;;;4966663;28;20548;-57
2022/10/21 13:02:03;;;;;;;9.18;4.55;;;;;;;;;;4965902;28;20289;-56
2022/10/21 13:04:30;;;;;;;11.32;4.45;;;;;;;;;;4960575;28;20314;-56
2022/10/21 13:07:15;;;;;;;7.50;3.90;;;;;;;;;;4962704;28;20274;-56
2022/10/21 13:09:49;;;;;;;9.25;4.05;;;;;;;;;;4955841;28;20215;-56
2022/10/21 13:12:22;;;;;;;10.02;4.40;;;;;;;;;;4962412;28;20689;-56
2022/10/21 13:14:55;;;;;;;8.18;4.22;;;;;;;;;;4963376;28;20270;-55
2022/10/21 13:17:27;;;;;;;9.52;3.65;;;;;;;;;;4969996;28;20249;-57
2022/10/21 13:20:14;;;;;;;11.07;3.47;;;;;;;;;;4967759;28;20219;-56
2022/10/21 13:22:43;;;;;;;7.07;3.67;;;;;;;;;;4944524;29;20231;-56
2022/10/21 13:25:28;;;;;;;8.85;3.55;;;;;;;;;;4954334;28;20242;-54
2022/10/21 13:28:14;;;;;;;9.90;3.30;;;;;;;;;;4955878;28;20689;-56
2022/10/21 13:30:47;;;;;;;7.32;2.92;;;;;;;;;;4955780;29;20235;-57
2022/10/21 13:33:25;;;;;;;10.23;3.20;;;;;;;;;;4957321;29;20223;-56
2022/10/21 13:35:56;;;;;;;11.25;4.40;;;;;;;;;;4955434;29;20238;-56
2022/10/21 13:38:25;;;;;;;7.70;3.20;;;;;;;;;;4939970;29;20219;-56
2022/10/21 13:40:55;;;;;;;23.73;9.57;;;;;;;;;;4955716;29;20289;-57
2022/10/21 13:43:37;;;;;;;12.20;4.32;;;;;;;;;;4956407;29;20570;-55
2022/10/21 13:46:07;;;;;;;5.72;3.05;;;;;;;;;;4956104;29;20231;-56
2022/10/21 13:48:43;;;;;;;12.77;3.00;;;;;;;;;;4953417;29;20224;-56
2022/10/21 13:51:25;;;;;;;9.85;3.20;;;;;;;;;;4967252;28;20575;-55
2022/10/21 13:54:13;;;;;;;7.35;3.03;;;;;;;;;;4954327;28;20673;-56
2022/10/21 13:56:41;;;;;;;5.55;2.92;;;;;;;;;;4948606;28;20226;-57
2022/10/21 13:59:28;;;;;;;7.68;3.03;;;;;;;;;;4974950;28;20249;-56
2022/10/21 14:01:56;;;;;;;8.15;3.15;;;;;;;;;;4956925;28;20227;-56
2022/10/21 14:04:28;;;;;;;10.27;3.67;;;;;;;;;;4956721;28;20273;-55
2022/10/21 14:07:07;;;;;;;14.38;4.15;;;;;;;;;;4957120;28;20235;-55
2022/10/21 14:09:40;;;;;;;7.00;3.13;;;;;;;;;;4969450;28;20234;-56
2022/10/21 14:12:18;;;;;;;12.32;3.95;;;;;;;;;;4955855;29;20237;-55
2022/10/21 14:14:45;;;;;;;7.35;3.58;;;;;;;;;;4955632;29;20226;-56
2022/10/21 14:17:22;;;;;;;13.90;4.82;;;;;;;;;;4964189;28;20242;-53
2022/10/21 14:19:52;;;;;;;8.80;3.83;;;;;;;;;;4971597;28;20234;-56
2022/10/21 14:22:22;;;;;;;14.38;5.80;;;;;;;;;;4955868;29;20262;-57
2022/10/21 14:24:53;;;;;;;13.98;5.20;;;;;;;;;;4955570;29;20242;-58
2022/10/21 14:27:24;;;;;;;13.38;4.35;;;;;;;;;;4955310;29;20601;-57
2022/10/21 14:29:52;;;;;;;9.18;3.28;;;;;;;;;;4955435;29;20319;-57
2022/10/21 14:32:21;;;;;;;12.52;4.45;;;;;;;;;;4956476;28;20238;-57
2022/10/21 14:35:01;;;;;;;9.95;3.95;;;;;;;;;;4955734;29;20254;-57
2022/10/21 14:37:55;;;;;;;48.92;19.25;;;;;;;;;;4956096;28;20227;-54
2022/10/21 14:40:31;;;;;;;22.90;7.88;;;;;;;;;;4954228;29;20228;-57
2022/10/21 14:43:10;;;;;;;124.32;40.65;;;;;;;;;;4956262;28;20227;-58
2022/10/21 14:45:44;;;;;;;145.80;55.15;;;;;;;;;;4954659;28;20237;-56
2022/10/21 14:48:19;;;;;;;13.65;5.53;;;;;;;;;;4960551;28;20222;-57
2022/10/21 14:50:52;;;;;;;5.70;3.53;;;;;;;;;;4964163;28;20323;-56
2022/10/21 14:53:22;;;;;;;9.52;3.97;;;;;;;;;;4956721;28;20227;-57
2022/10/21 14:55:53;;;;;;;10.98;4.45;;;;;;;;;;4955191;29;20250;-57
2022/10/21 14:58:28;;;;;;;11.65;4.85;;;;;;;;;;4955173;29;20227;-57